Aérodrome :
LOGIN :

S'inscrire | Disclaimer

   EN    FR    IT 

 










Légende :    VFR   VFR Marginal   IFR   IFR Intensif   IFR Très Intensif
Visi : 
Plafond : 
>= 8 km
>= 3000ft
5 à 8 km
1000 à 3000 ft
1500m à 5 km
500 à 1000 ft
800 à 1500m
200 à 500 ft
< 800m
< 200 ft
Symboles :   Orages  Brouillard  Fortes neiges  Fortes précipitations  Vent > 20 kt
SIGMETs :   Divers  Orages  Givrage  Turbulence  Onde Orograph.  Cendres Volcan.







- Altitude de l'aérodrome : 529 ft
- Code IATA : CHR
- Voir les cartes d'approche


LFLX - Chateauroux

DERNIER METAR :
  • 150130Z AUTO 08002KT 4600 BR NSC M05/M06 Q1023 NOSIG

METARs EXPIRÉS :
  • 150100Z AUTO 07003KT 4500 BR NSC M05/M06 Q1023 NOSIG
  • 150030Z AUTO 07003KT 4600 BR NSC M05/M06 Q1022 NOSIG
  • 150000Z AUTO 08002KT 4300 BR NSC M05/M06 Q1023 NOSIG
  • 142330Z AUTO 00000KT 5000 1200 R21/0900D BR NSC M04/M05 Q1023 NOSIG
  • 142300Z AUTO 00000KT 4300 1500 R21/1100D BR NSC M04/M05 Q1023 NOSIG

TAF TAF LFLX
Valide du 15 à 00h jusqu'au 16 à 06h UTC


142300Z 1500/1606 16003KT 6000 SCT025
TEMPO 1500/1508 3000 BR
BECMG 1511/1513 12010KT BKN020
TEMPO 1515/1522 23015G25KT 3000 RA BKN006
TEMPO 1522/1606 23012G22KT BKN008
Pas de NOTAMs connus pour ce terrain.



MET'MAP, la Météo Aéronautique d'un coup d'oeil ! - Copyright ORBIFLY Décembre 2007 - Disclaimer

ORBIFLY MET'MAP TEAM :

Programmation & Développement : Alexandra Zaïnal
Conception & Développement : Baudouin d'Aumeries
Co-Programmation & Développement : Marc-Olivier Méhu
Soutien technique & logistique : Manuel Goepfert

Contact : metmap@orbifly.com




SOURCES & CREDITS :

   NOAA